Terminal Aerodrome Forecast
Issued by NWS

Home | Current Version | Previous Version | Text Only | Print | Product List | Glossary On
Versions: 1 2 3 4 5 6 7 8 9 10 11 12 13 14 15 16 17 18 19 20
000
FTUS43 KMQT 290500
TAFCMX
TAF
KCMX 290533Z 2906/3006 17005KT P6SM -SHSN BKN020 OVC040
      TEMPO 2906/2910 SCT020
     FM291400 18005KT P6SM -FZDZSN OVC015
     FM292200 22007KT P6SM -DZ OVC015
     FM300200 27012KT P6SM -FZDZ OVC007=

USA.gov is the U.S. government's official web portal to all federal, state and local government web resources and services.